createdAt,value
2023-02-22T09:06:23.369Z,0.50
2023-02-22T09:07:23.247Z,0.50
2023-02-22T09:08:23.169Z,0.50
2023-02-22T09:09:23.448Z,0.50
2023-02-22T09:10:23.301Z,0.50
2023-02-22T09:11:23.172Z,0.34
2023-02-22T09:12:22.974Z,0.34
2023-02-22T09:13:22.926Z,0.34
2023-02-22T09:14:22.874Z,0.34
2023-02-22T09:15:22.924Z,0.34
2023-02-22T09:16:22.868Z,0.34
2023-02-22T09:17:22.709Z,0.34
2023-02-22T09:18:22.837Z,0.34
2023-02-22T09:19:22.609Z,0.34
2023-02-22T09:20:22.882Z,0.34
2023-02-22T09:21:22.497Z,0.34
2023-02-22T09:22:22.402Z,0.34
2023-02-22T09:23:22.356Z,0.34
2023-02-22T09:24:22.333Z,0.34
2023-02-22T09:25:22.476Z,0.34
2023-02-22T09:26:22.219Z,0.34
2023-02-22T09:27:22.276Z,0.34
2023-02-22T09:28:22.119Z,0.34
2023-02-22T09:29:22.006Z,0.34
2023-02-22T09:30:22.008Z,0.34
2023-02-22T09:31:22.521Z,0.34
2023-02-22T09:32:21.936Z,0.34
2023-02-22T09:33:21.728Z,0.34
2023-02-22T09:34:21.567Z,0.34
2023-02-22T09:35:21.431Z,0.34
2023-02-22T09:36:21.395Z,0.34
2023-02-22T09:37:21.198Z,0.34
2023-02-22T09:38:21.165Z,0.34
2023-02-22T09:39:20.972Z,0.34
2023-02-22T09:40:20.955Z,0.34
2023-02-22T09:41:20.719Z,0.34
2023-02-22T09:42:20.578Z,0.34
2023-02-22T09:43:20.492Z,0.34
2023-02-22T09:44:20.348Z,0.34
2023-02-22T09:45:20.220Z,0.34
2023-02-22T09:46:20.819Z,0.34
2023-02-22T09:47:20.069Z,0.34
2023-02-22T09:48:22.325Z,0.34
2023-02-22T09:49:20.690Z,0.34
2023-02-22T09:50:19.668Z,0.34
2023-02-22T09:51:20.487Z,0.34
2023-02-22T09:52:19.375Z,0.34
2023-02-22T09:53:19.345Z,0.34
2023-02-22T09:54:19.180Z,0.34
2023-02-22T09:55:19.080Z,0.34
2023-02-22T09:56:19.369Z,0.34
2023-02-22T09:57:19.006Z,0.40
2023-02-22T09:58:18.678Z,0.48
2023-02-22T09:59:18.585Z,0.51
2023-02-22T10:00:18.415Z,0.51
2023-02-22T10:01:18.332Z,0.55
2023-02-22T10:02:18.201Z,0.58
2023-02-22T10:03:19.976Z,0.57
2023-02-22T10:04:17.959Z,0.57
2023-02-22T10:05:17.832Z,0.57
2023-02-22T10:06:18.859Z,0.61
2023-02-22T10:07:18.587Z,0.64
2023-02-22T10:08:17.410Z,0.56
2023-02-22T10:09:17.290Z,0.52
2023-02-22T10:10:17.168Z,0.53
2023-02-22T10:11:17.033Z,0.45
2023-02-22T10:12:16.924Z,0.65
2023-02-22T10:13:16.744Z,0.72
2023-02-22T10:14:16.622Z,0.69
2023-02-22T10:15:16.491Z,0.75
2023-02-22T10:16:16.897Z,0.60
2023-02-22T10:17:16.326Z,0.61
2023-02-22T10:18:16.102Z,0.71
2023-02-22T10:19:16.491Z,0.73
2023-02-22T10:20:15.849Z,0.77
2023-02-22T10:21:15.731Z,0.76
2023-02-22T10:22:16.670Z,0.80
2023-02-22T10:23:15.540Z,0.80
2023-02-22T10:24:15.383Z,0.83
2023-02-22T10:25:15.239Z,0.71
2023-02-22T10:26:15.290Z,0.73
2023-02-22T10:27:14.976Z,0.76
2023-02-22T10:28:14.839Z,0.79
2023-02-22T11:25:07.176Z,0.69
2023-02-22T11:26:07.134Z,0.71
2023-02-22T11:34:05.943Z,0.77
2023-02-22T11:35:09.207Z,0.77
2023-02-22T11:47:04.110Z,0.88
2023-02-22T11:48:03.948Z,0.81
2023-02-22T11:50:03.707Z,0.88
2023-02-22T11:51:03.547Z,0.87
2023-02-22T11:52:03.425Z,0.85
2023-02-22T11:54:03.151Z,0.88
2023-02-22T11:55:03.026Z,0.86
2023-02-22T11:56:02.957Z,0.89
2023-02-22T11:57:02.738Z,0.90
2023-02-22T11:58:02.632Z,0.90
2023-02-22T11:59:02.495Z,0.91
2023-02-22T12:00:02.360Z,0.91
2023-02-22T12:01:02.237Z,0.93
2023-02-22T12:02:02.170Z,0.94
2023-02-22T12:03:02.011Z,0.96
2023-02-22T12:04:01.826Z,0.94
2023-02-22T12:05:01.689Z,0.92
2023-02-22T12:06:01.491Z,0.92
2023-02-22T12:07:01.388Z,0.91
2023-02-22T12:08:10.717Z,0.94
2023-02-22T12:09:02.105Z,0.94
2023-02-22T12:10:03.565Z,0.94
2023-02-22T12:11:01.032Z,0.94
2023-02-22T12:12:00.889Z,0.90
2023-02-22T12:13:00.781Z,0.77
2023-02-22T12:14:00.615Z,0.74
2023-02-22T12:15:00.506Z,0.76
2023-02-22T12:16:00.445Z,0.70
2023-02-22T12:17:00.169Z,0.74
2023-02-22T12:18:00.632Z,0.70
2023-02-22T12:19:00.008Z,0.71
2023-02-22T12:20:00.089Z,0.70
2023-02-22T12:20:59.661Z,0.73
2023-02-22T12:21:59.546Z,0.70
2023-02-22T12:22:59.459Z,0.68
2023-02-22T12:23:59.435Z,0.72
2023-02-22T12:25:09.144Z,0.69
2023-02-22T12:26:00.204Z,0.69
2023-02-22T12:26:59.583Z,0.68
2023-02-22T12:27:58.891Z,0.71
2023-02-22T12:28:58.830Z,0.76
2023-02-22T12:29:58.566Z,0.84
2023-02-22T12:30:58.499Z,0.86
2023-02-22T12:31:58.330Z,0.83
2023-02-22T12:32:58.209Z,0.83
2023-02-22T12:33:58.072Z,0.82
2023-02-22T12:34:58.063Z,0.85
2023-02-22T12:35:57.750Z,0.88
2023-02-22T12:36:57.627Z,0.84
2023-02-22T12:37:57.524Z,0.86
2023-02-22T12:38:57.350Z,0.87
2023-02-22T12:39:57.220Z,0.87
2023-02-22T12:40:57.075Z,0.89
2023-02-22T12:41:56.970Z,0.89
2023-02-22T12:42:56.808Z,0.88
2023-02-22T12:43:56.677Z,0.88
2023-02-22T12:44:56.533Z,0.89
2023-02-22T12:45:56.383Z,0.88
2023-02-22T12:46:56.230Z,0.90
2023-02-22T12:47:56.101Z,0.89
2023-02-22T12:48:55.945Z,0.89
2023-02-22T12:49:55.826Z,0.91
2023-02-22T12:50:55.647Z,0.91
2023-02-22T12:51:55.499Z,0.90
2023-02-22T12:52:56.108Z,0.91
2023-02-22T12:53:55.974Z,0.90
2023-02-22T12:54:55.573Z,0.88
2023-02-22T12:55:56.570Z,0.87
2023-02-22T12:56:54.785Z,0.88
2023-02-22T12:57:54.677Z,0.89
2023-02-22T12:58:54.525Z,0.91
2023-02-22T12:59:54.357Z,0.91
2023-02-22T13:00:54.236Z,0.88
2023-02-22T13:01:54.113Z,0.88
2023-02-22T13:02:53.950Z,0.89
2023-02-22T13:03:53.842Z,0.90
2023-02-22T13:04:53.661Z,0.90
2023-02-22T13:05:53.509Z,0.92
2023-02-22T13:50:48.193Z,0.34
2023-02-22T13:51:48.125Z,0.34
2023-02-22T13:52:47.956Z,0.37
2023-02-22T13:53:47.465Z,0.34
2023-02-22T13:55:19.043Z,0.34
2023-02-22T13:55:49.987Z,0.34
2023-02-22T13:56:46.956Z,0.35
2023-02-22T13:58:13.968Z,0.36
2023-02-22T13:58:55.741Z,0.35
2023-02-22T13:59:51.329Z,0.35
2023-02-22T14:00:47.864Z,0.35
2023-02-22T14:01:47.510Z,0.39
2023-02-22T14:03:26.567Z,0.46
2023-02-22T14:03:59.743Z,0.35
2023-02-22T14:05:44.600Z,0.35
2023-02-22T14:06:04.206Z,0.34
2023-02-22T14:10:25.537Z,0.36
2023-02-22T14:11:26.344Z,0.42
2023-02-22T14:12:25.737Z,0.52
2023-02-22T14:13:24.983Z,0.74
2023-02-22T14:16:24.718Z,0.36
2023-02-22T14:17:24.733Z,0.41
2023-02-22T14:20:24.286Z,0.36
2023-02-22T14:21:23.935Z,0.40
2023-02-22T14:22:23.608Z,0.59
2023-02-22T14:23:23.472Z,0.90
2023-02-22T15:15:38.873Z,18.50
2023-02-22T15:16:34.376Z,15.06
2023-02-22T15:45:25.707Z,23.84
2023-02-22T15:46:25.391Z,23.89
2023-02-22T15:47:25.239Z,24.29
2023-02-22T15:48:25.103Z,23.87
2023-02-22T15:49:25.119Z,24.17
2023-02-22T15:50:24.812Z,23.65
2023-02-22T15:51:24.718Z,23.32
2023-02-22T15:52:24.556Z,24.13
2023-02-22T15:53:24.410Z,24.03
2023-02-22T15:54:27.713Z,24.10
2023-02-22T15:55:25.689Z,24.14
2023-02-22T15:56:24.030Z,24.32
2023-02-22T15:57:23.868Z,24.65
2023-02-22T15:58:23.743Z,24.20
2023-02-22T15:59:23.580Z,24.42
2023-02-22T16:00:23.432Z,24.22
2023-02-22T16:28:19.379Z,31.78
2023-02-22T16:29:19.264Z,31.99
2023-02-22T16:30:24.308Z,32.05
2023-02-22T16:31:19.395Z,32.08
2023-02-22T16:32:18.888Z,32.25
2023-02-22T16:33:18.670Z,32.21
2023-02-22T16:34:18.533Z,32.61
2023-02-22T16:35:18.423Z,32.87
2023-02-22T16:36:18.465Z,32.68
2023-02-22T16:37:18.063Z,32.83
2023-02-22T16:38:17.910Z,32.62
2023-02-22T16:39:17.777Z,32.16
2023-02-22T16:40:17.645Z,32.23
2023-02-22T16:41:17.856Z,32.37
2023-02-22T16:42:17.332Z,32.58
2023-02-22T16:43:17.183Z,32.68
2023-02-22T16:44:17.053Z,32.96
2023-02-22T16:45:16.896Z,33.73
2023-02-22T16:46:17.220Z,33.75
2023-02-22T16:47:16.601Z,33.74
2023-02-22T16:48:16.456Z,33.75
2023-02-22T16:49:16.306Z,33.29
2023-02-22T16:50:16.168Z,33.73
2023-02-22T16:51:16.026Z,33.00
2023-02-22T16:52:15.894Z,32.88
2023-02-22T16:53:15.715Z,32.93
2023-02-22T16:54:15.610Z,33.03
2023-02-22T16:55:15.425Z,32.95
2023-02-22T16:56:15.630Z,33.05
2023-02-22T16:57:15.150Z,33.27
2023-02-22T16:58:14.988Z,33.47
2023-02-22T16:59:14.863Z,33.13
2023-02-22T17:00:14.702Z,33.72
2023-02-22T17:01:14.575Z,33.45
2023-02-22T17:02:14.392Z,33.34
2023-02-22T17:03:14.244Z,32.82
2023-02-22T17:04:14.110Z,32.86
2023-02-22T17:05:13.999Z,32.66
2023-02-22T17:06:13.808Z,32.81
2023-02-22T17:07:13.649Z,32.35
2023-02-22T17:08:13.515Z,31.83
2023-02-22T17:09:13.388Z,32.27
2023-02-22T18:12:05.697Z,26.14
2023-02-22T18:13:05.603Z,25.57
2023-02-22T18:14:05.506Z,25.48
2023-02-22T18:15:05.433Z,25.43
2023-02-22T18:16:05.392Z,25.30
2023-02-22T18:17:05.250Z,25.75
2023-02-22T18:18:05.393Z,25.56
2023-02-22T18:19:05.102Z,25.60
2023-02-22T18:20:04.962Z,25.59
2023-02-22T18:21:04.809Z,25.60
2023-02-22T18:22:04.660Z,25.57
2023-02-22T18:23:04.494Z,25.31
2023-02-22T18:24:04.357Z,25.85
2023-02-22T18:25:04.216Z,25.41
2023-02-22T18:26:11.234Z,24.69
2023-02-22T18:27:04.935Z,24.75
2023-02-22T18:28:03.771Z,24.84
2023-02-22T18:29:03.633Z,24.87
2023-02-22T18:30:03.516Z,24.92
2023-02-22T19:10:58.235Z,22.35
2023-02-22T19:11:58.147Z,22.30
2023-02-22T19:12:58.054Z,21.73
2023-02-22T19:13:57.968Z,21.56
2023-02-22T19:14:57.868Z,22.11
2023-02-22T19:15:57.730Z,22.14
2023-02-22T19:16:57.574Z,22.11
2023-02-22T19:17:57.405Z,22.04
2023-02-22T19:18:57.806Z,22.05
2023-02-22T19:19:57.146Z,21.79
2023-02-22T19:20:56.976Z,21.71
2023-02-22T19:21:56.818Z,21.81
2023-02-22T19:22:56.671Z,21.81
2023-02-22T19:23:56.641Z,21.59
2023-02-22T19:24:56.389Z,21.07
2023-02-22T19:25:56.249Z,21.55
2023-02-22T19:26:56.086Z,21.19
2023-02-22T19:27:55.927Z,21.17
2023-02-22T19:28:55.792Z,21.19
2023-02-22T19:29:55.635Z,21.03
2023-02-22T19:30:55.535Z,21.13
2023-02-22T19:31:55.457Z,21.12
2023-02-22T19:32:55.248Z,20.56
2023-02-22T19:33:55.031Z,20.60
2023-02-22T19:34:54.883Z,20.71
2023-02-22T19:35:54.756Z,20.60
2023-02-22T19:36:54.607Z,20.67
2023-02-22T19:37:54.473Z,20.73
2023-02-22T19:38:54.315Z,20.81
2023-02-22T19:39:54.172Z,20.88
2023-02-22T19:40:54.033Z,20.79
2023-02-22T19:41:53.880Z,20.72
2023-02-22T19:42:53.745Z,20.50
2023-02-22T19:43:53.608Z,20.52
2023-02-22T19:44:53.446Z,20.26
2023-02-22T20:09:49.741Z,19.26
2023-02-22T20:10:49.585Z,18.99
2023-02-22T20:11:49.439Z,18.97
2023-02-22T20:12:49.309Z,18.95
2023-02-22T20:13:49.125Z,18.98
2023-02-22T20:14:48.991Z,18.90
2023-02-22T20:15:48.842Z,18.56
2023-02-22T20:16:48.715Z,18.51
2023-02-22T20:17:48.530Z,18.55
2023-02-22T20:18:48.399Z,18.58
2023-02-22T20:19:48.327Z,18.60
2023-02-22T20:20:48.088Z,18.70
2023-02-22T20:21:47.941Z,18.58
2023-02-22T20:22:47.815Z,18.84
2023-02-22T20:23:47.650Z,18.63
2023-02-22T20:24:47.490Z,18.65
2023-02-22T20:25:47.327Z,18.69
2023-02-22T20:26:47.206Z,18.52
2023-02-22T20:27:47.028Z,18.50
2023-02-22T20:28:46.888Z,18.71
2023-02-22T20:29:46.764Z,18.67
2023-02-22T20:30:46.617Z,18.72
2023-02-22T20:31:46.562Z,18.55
2023-02-22T20:32:46.533Z,18.80
2023-02-22T20:33:46.279Z,18.66
2023-02-22T20:34:46.049Z,18.67
2023-02-22T20:35:45.900Z,18.71
2023-02-22T20:36:45.753Z,18.68
2023-02-22T20:37:45.619Z,18.66
2023-02-22T20:38:45.499Z,18.68
2023-02-22T20:39:45.303Z,18.72
2023-02-22T20:40:45.171Z,18.67
2023-02-22T20:41:45.031Z,18.74
2023-02-22T20:42:44.898Z,18.67
2023-02-22T20:43:44.725Z,18.71
2023-02-22T20:44:44.579Z,18.68
2023-02-22T20:45:44.499Z,18.72
2023-02-22T20:46:44.291Z,18.84
2023-02-22T20:47:44.119Z,18.38
2023-02-22T20:48:44.010Z,18.37
2023-02-22T20:49:43.821Z,18.26
2023-02-22T20:50:43.693Z,18.50
2023-02-22T20:51:43.531Z,18.18
2023-02-22T20:52:43.402Z,17.77
2023-02-22T20:53:43.240Z,18.01
2023-02-22T20:54:43.093Z,17.70
2023-02-22T20:55:42.936Z,17.68
2023-02-22T20:56:42.804Z,17.95
2023-02-22T20:57:42.642Z,17.78
2023-02-22T20:58:42.492Z,17.60
2023-02-22T20:59:42.363Z,17.77
2023-02-22T21:00:42.217Z,17.45
2023-02-22T21:01:42.073Z,17.60
2023-02-22T21:02:42.817Z,17.40
2023-02-22T21:03:41.794Z,17.71
2023-02-22T21:04:41.650Z,17.43
2023-02-22T21:05:41.486Z,17.20
2023-02-22T21:06:41.371Z,17.22
2023-02-22T21:07:41.220Z,17.27
2023-02-22T21:08:41.071Z,17.36
2023-02-22T21:09:40.914Z,17.28
2023-02-22T21:10:40.781Z,17.45
2023-02-22T21:11:40.658Z,17.31
2023-02-22T21:12:40.502Z,16.98
2023-02-22T21:13:40.376Z,17.30
2023-02-22T21:14:40.207Z,17.07
2023-02-22T21:15:40.070Z,16.97
2023-02-22T21:16:39.967Z,16.90
2023-02-22T21:17:39.769Z,16.87
2023-02-22T21:18:39.609Z,16.64
2023-02-22T21:19:39.480Z,16.43
2023-02-22T21:20:39.325Z,16.69
2023-02-22T21:21:39.188Z,16.87
2023-02-22T21:22:39.029Z,16.79
2023-02-22T21:23:38.897Z,16.80
2023-02-22T21:24:38.762Z,16.60
2023-02-22T21:25:38.597Z,16.62
2023-02-22T21:26:38.471Z,16.68
2023-02-22T21:27:38.309Z,16.80
2023-02-22T21:28:52.064Z,16.65
2023-02-22T21:29:39.022Z,16.62
2023-02-22T21:30:37.999Z,16.69
2023-02-22T21:31:37.967Z,16.69
2023-02-22T21:32:37.596Z,16.58
2023-02-22T21:33:37.452Z,16.56
2023-02-22T21:34:37.287Z,16.51
2023-02-22T21:35:37.822Z,16.52
2023-02-22T21:36:37.001Z,16.20
2023-02-22T21:37:36.863Z,16.68
2023-02-22T21:38:36.738Z,16.36
2023-02-22T21:39:36.610Z,16.34
2023-02-22T21:40:36.411Z,16.37
2023-02-22T21:41:36.274Z,15.99
2023-02-22T21:42:36.122Z,16.05
2023-02-22T21:43:35.998Z,16.00
2023-02-22T21:44:35.861Z,16.25
2023-02-22T21:45:35.718Z,15.81
2023-02-22T21:46:35.605Z,16.00
2023-02-22T21:47:35.424Z,15.88
2023-02-22T21:48:35.817Z,15.90
2023-02-22T21:49:35.151Z,16.07
2023-02-22T21:50:35.048Z,15.71
2023-02-22T21:51:34.864Z,15.93
2023-02-22T21:52:34.709Z,15.65
2023-02-22T21:53:34.579Z,15.47
2023-02-22T21:54:34.446Z,15.62
2023-02-22T21:55:34.278Z,15.47
2023-02-22T21:56:34.136Z,15.38
2023-02-22T21:57:33.992Z,15.59
2023-02-22T21:58:33.866Z,15.41
2023-02-22T21:59:33.701Z,15.49
2023-02-22T22:00:33.574Z,15.36
2023-02-22T22:01:33.457Z,15.32
2023-02-22T22:02:33.340Z,15.14
2023-02-22T22:03:33.134Z,14.88
2023-02-22T22:04:33.000Z,15.02
2023-02-22T22:05:32.842Z,15.10
2023-02-22T22:06:32.689Z,15.02
2023-02-22T22:07:32.550Z,15.11
2023-02-22T22:08:32.411Z,14.91
2023-02-22T22:09:32.323Z,14.88
2023-02-22T22:10:32.115Z,14.82
2023-02-22T22:11:31.982Z,14.76
2023-02-22T22:12:39.207Z,14.92
2023-02-22T22:13:32.692Z,14.94
2023-02-22T22:14:31.536Z,14.97
2023-02-22T22:15:31.387Z,14.97
2023-02-22T22:16:31.258Z,14.97
2023-02-22T22:17:31.081Z,14.93
2023-02-22T22:18:30.947Z,14.86
2023-02-22T22:19:30.848Z,14.80
2023-02-22T22:20:30.680Z,14.95
2023-02-22T22:21:30.522Z,14.63
2023-02-22T22:22:30.377Z,14.66
2023-02-22T22:23:30.234Z,14.74
2023-02-22T22:24:30.097Z,14.49
2023-02-22T22:25:29.927Z,14.38
2023-02-22T22:26:29.875Z,14.41
2023-02-22T22:27:29.640Z,14.43
2023-02-22T22:28:29.500Z,14.46
2023-02-22T22:29:29.367Z,14.57
2023-02-22T22:30:29.259Z,14.62
2023-02-22T22:31:29.234Z,14.80
2023-02-22T22:32:29.908Z,14.80
2023-02-22T22:33:28.780Z,14.67
2023-02-22T22:34:28.633Z,14.72
2023-02-22T22:35:28.497Z,14.46
2023-02-22T22:36:28.380Z,14.42
2023-02-22T22:37:28.190Z,14.37
2023-02-22T22:38:28.062Z,14.21
2023-02-22T22:39:27.912Z,14.41
2023-02-22T22:40:27.771Z,14.27
2023-02-22T22:41:27.640Z,14.08
2023-02-22T22:42:27.504Z,14.27
2023-02-22T22:43:27.360Z,14.29
2023-02-22T22:44:27.189Z,14.33
2023-02-22T22:45:28.830Z,14.26
2023-02-22T22:46:26.966Z,14.36
2023-02-22T22:47:26.773Z,14.34
2023-02-22T22:48:26.626Z,14.39
2023-02-22T22:49:26.504Z,14.16
2023-02-22T22:50:26.416Z,13.92
2023-02-22T22:51:26.205Z,14.18
2023-02-22T22:52:26.056Z,14.02
2023-02-22T22:53:25.911Z,14.19
2023-02-22T22:54:25.788Z,13.67
2023-02-22T22:55:25.628Z,13.65
2023-02-22T22:56:25.475Z,13.90
2023-02-22T22:57:25.337Z,13.70
2023-02-22T22:58:25.247Z,13.91
2023-02-22T22:59:25.039Z,13.78
2023-02-22T23:00:24.898Z,13.49
2023-02-22T23:01:24.739Z,13.59
2023-02-22T23:02:24.618Z,13.59
2023-02-22T23:03:24.501Z,13.77
2023-02-22T23:04:24.307Z,13.69
2023-02-22T23:05:24.162Z,13.46
2023-02-22T23:06:24.017Z,13.34
2023-02-22T23:07:23.891Z,13.47
2023-02-22T23:08:23.712Z,13.35
2023-02-22T23:09:23.552Z,13.43
2023-02-22T23:10:23.417Z,13.28
